createdAt,value
2023-11-20T00:05:40.316Z,11
2023-11-20T00:25:41.241Z,10.9
2023-11-20T00:35:42.255Z,10.9
2023-11-20T00:45:42.562Z,10.9
2023-11-20T00:55:42.846Z,10.9
2023-11-20T01:05:43.669Z,10.9
2023-11-20T01:15:44.598Z,11
2023-11-20T01:25:45.352Z,11
2023-11-20T01:35:46.235Z,11
2023-11-20T01:45:47.134Z,11
2023-11-20T01:55:47.366Z,10.9
2023-11-20T02:05:47.523Z,10.9
2023-11-20T02:15:47.700Z,10.8
2023-11-20T02:25:48.318Z,10.8
2023-11-20T02:35:48.950Z,10.9
2023-11-20T02:45:49.322Z,11
2023-11-20T02:55:49.745Z,11
2023-11-20T03:05:50.664Z,10.8
2023-11-20T03:15:51.108Z,10.7
2023-11-20T03:25:51.536Z,10.8
2023-11-20T03:35:52.528Z,10.9
2023-11-20T03:45:53.424Z,11
2023-11-20T03:55:53.582Z,11
2023-11-20T04:05:54.074Z,11
2023-11-20T04:15:54.988Z,11
2023-11-20T04:25:55.111Z,11
2023-11-20T04:35:55.933Z,11
2023-11-20T04:55:56.425Z,11
2023-11-20T05:05:57.470Z,11
2023-11-20T05:15:58.406Z,11
2023-11-20T05:25:58.632Z,11
2023-11-20T05:35:59.684Z,11
2023-11-20T05:46:00.414Z,11
2023-11-20T05:56:00.517Z,11
2023-11-20T06:06:00.935Z,11
2023-11-20T06:16:01.590Z,11
2023-11-20T06:26:01.697Z,11
2023-11-20T06:36:02.042Z,10.9
2023-11-20T06:46:02.708Z,10.9
2023-11-20T06:56:03.136Z,10.9
2023-11-20T07:06:03.288Z,10.9
2023-11-20T07:16:04.124Z,10.8
2023-11-20T07:26:04.872Z,10.9
2023-11-20T07:46:06.103Z,10.9
2023-11-20T07:56:06.584Z,10.9
2023-11-20T08:06:13.214Z,11
2023-11-20T08:16:07.546Z,11
2023-11-20T08:26:07.676Z,10.9
2023-11-20T08:36:07.967Z,10.8
2023-11-20T08:46:12.841Z,11
2023-11-20T08:56:09.057Z,11.2
2023-11-20T09:06:09.942Z,11.1
2023-11-20T09:16:10.311Z,11
2023-11-20T09:26:11.293Z,11
2023-11-20T09:36:12.383Z,11
2023-11-20T09:46:12.556Z,11.2
2023-11-20T09:56:13.410Z,11.3
2023-11-20T10:06:12.939Z,11.4
2023-11-20T10:46:15.236Z,11.8
2023-11-20T12:36:25.449Z,11.6
2023-11-20T13:36:25.377Z,11.5
2023-11-20T13:56:26.363Z,11.7
2023-11-20T14:06:26.744Z,11.5
2023-11-20T14:16:27.316Z,11.4
2023-11-20T14:26:32.014Z,11.4
2023-11-20T14:36:28.285Z,11.3
2023-11-20T14:46:28.817Z,11
2023-11-20T14:56:28.940Z,10.9
2023-11-20T15:06:29.981Z,10.6
2023-11-20T15:16:30.996Z,10.4
2023-11-20T15:36:32.645Z,9.9
2023-11-20T15:56:33.426Z,9.5
2023-11-20T16:06:33.764Z,9.2
2023-11-20T16:16:34.351Z,9
2023-11-20T16:26:34.534Z,8.7
2023-11-20T16:36:34.658Z,8.4
2023-11-20T16:46:41.035Z,8.1
2023-11-20T16:56:41.864Z,8.2
2023-11-20T17:06:42.550Z,8.3
2023-11-20T17:16:43.475Z,8.3
2023-11-20T17:26:43.561Z,8.6
2023-11-20T17:36:44.029Z,8.6
2023-11-20T17:46:44.384Z,8.7
